Aurora, Illinois
Current Conditions -  °F | °C
As of 5:52 PM on Tuesday 25 Nov 2014 (Local Time) from KARR Reporting Station
Clear Clear  
Wind Chill:   Ceiling: Unl
Heat Index: 16°   Visibility: 7mi
Dew Point: 11°   Wind: 5mph
Humidity: 81%   Direction: 290°WNW
Pressure: 30.17"   Gusts: NA
Location:  41.76°N, 88.31°W
Report Text: KARR 252352Z 29004KT 7SM CLR M09/M12 A3017 RMK AO2 SLP227 T10891117 11044 21089 53005
Loading
Personal Weather Stations






























Interactive Weather Map New forecast layout! Learn more

10-Day Weather Forecast

Advertisements
Track Severe Weather on mobile